AirNav   Everest Fuels
 
 490 users online  

06C Schaumburg Regional Airport
Chicago/Schaumburg, Illinois, USA

GOING TO CHICAGO/SCHAUMBURG?


FAA INFORMATION EFFECTIVE 08 OCTOBER 2020

Location

FAA Identifier: 06C
Lat/Long: 41-59-21.6270N 088-06-04.4740W
41-59.360450N 088-06.074567W
41.9893408,-88.1012428
(estimated)
Elevation: 801 ft. / 244 m (estimated)
Variation: 01W (1985)
From city: 22 miles NW of central business district of the associated city
Time zone: UTC -5 (UTC -6 during Standard Time)
Zip code: 60172

Airport Operations

Airport use: Open to the public
Control tower: no
ARTCC: CHICAGO CENTER
FSS: KANKAKEE FLIGHT SERVICE STATION
NOTAMs facility: IKK (NOTAM-D service available)
Attendance: OCT-APR 0700-1900, MAY-SEP 0700-2000
Pattern altitude: 1601 ft. MSL
Wind indicator: lighted
Segmented circle: no
Lights: MIRL RY 11/29 PRESET LOW INTST; TO INCR INTST & ACTVT TWY LGTS & REILS RY 11 & RY 29 - CTAF.
Beacon: white-green (lighted land airport)
Operates sunset to sunrise.

Airport Communications

CTAF/UNICOM: 123.0
WX AWOS-3: 128.275 ((847) 895-2887)
WX ASOS at DPA (8 nm SW): PHONE 630-587-3668
WX ASOS at ORD (9 nm E): PHONE 773-462-0118
WX ASOS at PWK (12 nm NE): PHONE 847-465-0291
WX ASOS at MDW (20 nm SE): PHONE 773-884-4424

Nearby radio navigation aids

VOR radial/distance  VOR name  Freq  Var
DPAr060/12.6DUPAGE VOR/DME108.4002E
OBKr208/15.4NORTHBROOK VOR/DME113.0002W
JOTr018/28.3JOLIET VOR/DME112.3002E
CGTr318/37.3CHICAGO HEIGHTS VORTAC114.2002E

Airport Services

Fuel available: 100LL JET-A
100LL SELF SRVC FUEL AVAILABLE AFTER HRS.
Parking: hangars and tiedowns
Airframe service: MAJOR
Powerplant service: MAJOR
Bottled oxygen: HIGH/LOW
Bulk oxygen: HIGH/LOW

Runway Information

Runway 11/29

Dimensions: 3800 x 100 ft. / 1158 x 30 m
HAS 100 FT STWY ON EACH END.
Surface: concrete, in good condition
Weight bearing capacity: 
Single wheel: 12.5
Double wheel: 12.5
Runway edge lights: medium intensity
RUNWAY 11  RUNWAY 29
Latitude: 41-59.442183N41-59.278733N
Longitude: 088-06.479333W088-05.669800W
Elevation: 801.0 ft.801.0 ft.
Traffic pattern: leftleft
Markings: basic, in good conditionbasic, in good condition
Visual slope indicator: 2-light PAPI on right (3.25 degrees glide path)2-light PAPI on left (3.00 degrees glide path)
Runway end identifier lights: yesyes
Touchdown point: yes, no lightsyes, no lights
Obstructions: 15 ft. brush, 251 ft. from runway, 92 ft. right of centerline, 4:1 slope to clear9 ft. brush, 276 ft. from runway, 26 ft. right of centerline, 8:1 slope to clear

Airport Ownership and Management from official FAA records

Ownership: Publicly-owned
Owner: VILLAGE OF SCHAUMBURG
101 SCHAUMBURG CT
SCHAUMBURG, IL 60193-1899
Phone 847-895-0007
Manager: KARYN ROBLES
101 SCHAUMBURG COURT
SCHAUMBURG, IL 60193
Phone 847-923-3859
EMERG CTC: 630-600-1439.

Airport Operational Statistics

Aircraft based on the field: 66
Single engine airplanes: 50
Multi engine airplanes: 4
Jet airplanes: 3
Helicopters: 9
    
Aircraft operations: avg 123/day *
53% transient general aviation
46% local general aviation
1% air taxi
* for 12-month period ending 31 July 2019

Additional Remarks

FOR NOISE ABATEMENT PROCEDURES CTC AMGR 847-923-3778.
WATER FOWL ON & INVOF RY 11/29.
RY 29 PREFERED RY IN CALM & DIRECT CROSSWINDS. DEP ACFT FLY RY HEADING TO 1400 FT MSL BEFORE STARTING CROSSWIND TURN.
BANNER TOWING PROHIBITED WITH IN 2 NM RADIUS OF ARPT.
FOR CD CTC CHICAGO APCH AT 847-289-0926.

Instrument Procedures

There are no published instrument procedures at 06C.

Some nearby airports with instrument procedures:

KDPA - DuPage Airport (8 nm SW)
KORD - Chicago O'Hare International Airport (9 nm E)
KPWK - Chicago Executive Airport (12 nm NE)
3CK - Lake in the Hills Airport (16 nm NW)
1C5 - Bolingbrook's Clow International Airport (18 nm S)
KMDW - Chicago Midway International Airport (20 nm SE)
 
Loc | Ops | Rwys | IFR | FBO | Links
Com | Nav | Svcs | Stats | Notes
Area around 06C (Schaumburg Regional Airport)
 
Road maps at: MapQuest Bing Google
 
Aerial photo
WARNING: Photo may not be current or correct
Aerial photo of 06C (Schaumburg Regional Airport)
Photo taken 23-Jun-2015
looking southeast.

Do you have a better or more recent aerial photo of Schaumburg Regional Airport that you would like to share? If so, please send us your photo.

 
Sectional chart

 
Airport distance calculator
Flying to Schaumburg Regional Airport? Find the distance to fly.

From to 06C

Sunrise and sunset
Times for 20-Oct-2020
 Local
(UTC-5)
 Zulu
(UTC)
Morning civil twilight06:4411:44
Sunrise07:1312:13
Sunset18:0123:01
Evening civil twilight18:3023:30

Current date and time
Zulu (UTC)  20-Oct-2020 10:37:47
Local (UTC-5)  20-Oct-2020 05:37:47
 
METAR
K06C 201015Z AUTO 01005KT 10SM 03/00 A3024 RMK AO2 T00261002
KORD 
7nm E 
200951Z 36008KT 10SM FEW017 BKN035 OVC070 03/00 A3024 RMK AO2 SLP245 T00330000 $
KDPA 
8nm SW 
200952Z 02008KT 10SM OVC033 03/00 A3023 RMK AO2 SLP244 T00330000
KPWK 
12nm NE 
200952Z AUTO 36005KT 10SM OVC034 04/01 A3026 RMK AO2 SLP253 T00440006
KMDW 
20nm SE 
200953Z 01010KT 10SM OVC018 07/02 A3023 RMK AO2 SLP244 T00670022 $
TAF
KORD 
7nm E 
200900Z 2009/2112 01010KT P6SM BKN015 FM201400 09011KT P6SM SCT020 BKN035 FM201900 11012G18KT P6SM BKN030 FM210000 12012KT 6SM -SHRA OVC015 FM210200 18010KT 4SM SHRA BR OVC007 FM210600 26012KT P6SM SCT009 BKN015
KDPA 
8nm SW 
200900Z 2009/2106 01009KT P6SM BKN015 FM201400 09011KT P6SM SCT020 BKN035 FM201900 11012G18KT P6SM BKN030 FM210000 12012KT 6SM -SHRA OVC015 FM210200 18010KT 4SM SHRA BR OVC007
KMDW 
20nm SE 
200900Z 2009/2112 01010KT P6SM OVC015 FM201400 09011KT P6SM SCT020 BKN035 FM201900 11012G18KT P6SM BKN030 FM210000 12012KT 6SM -SHRA OVC015 FM210200 18010KT 4SM SHRA BR OVC007 FM210600 26012KT P6SM SCT009 BKN015
NOTAMs
Click for the latest NOTAMs
NOTAMs are issued by the DoD/FAA and will open in a separate window not controlled by AirNav.

 

 
 

FBO, Fuel Providers, and Aircraft Ground Support

  
 Business Name 
 
 Contact 
 
 Services / Description 
 
Fuel Prices
 
Comments
  
Northwest Flyers 847-985-9778
[web site]
[email]
Airport management, Aviation fuel, Oxygen service, Aircraft parking (ramp or tiedown), Hangars, Hangar leasing / sales, GPU / Power cart, ...
 
DTN Meteorlogix   Enterprise Rent-A-Car   Cessna Service Center   Mooney Service Center   Authorized Piper Service Center   Wireless Internet Access (WiFi)   Wheelchair Accessible   National Business Aviation Association  
 
More info about Northwest Flyers
independent
100LL Jet A
FS $6.08 $5.69 
SS $5.47 --- 
 Updated 15-Oct-2020
 
   2 read write
FS=Full service
SS=Self service
Update Fuel Prices
 

Aviation Businesses, Services, and Facilities

  
 Business Name 
 
 Contact 
 
 Services / Description 
 
Distance
 
Comments
  
 AirplanesUSA Aircraft Sales
847-331-3133
847-275-1450
[web site]
[email]
Aircraft sales / leasing / brokerage

More info about AirplanesUSA Aircraft Sales
on airport  
   1 read write
 

Would you like to see your business listed on this page?

 If your business provides an interesting product or service to pilots, flight crews, aircraft, or users of the Schaumburg Regional Airport, you should consider listing it here.  To start the listing process, click on the button below
 
Add a business
 

Other Pages about Schaumburg Regional Airport

www.ci.schaumburg.il.us/...
www.schaumburgairport.com/Schaumburg-Airport-Runway-Information.html
 
Update a link
 
Copyright © AirNav, LLC. All rights reserved. Privacy Policy  Contact